Terminal Aerodrome Forecast
Issued by NWS

Home | Current Version | Previous Version | Text Only | Print | Product List | Glossary On
Versions: 1 2 3 4 5 6 7 8 9 10 11 12 13 14 15 16 17 18 19
000
FTUS46 KSEW 250500 RRA
TAFPAE
TAF
KPAE 250543Z 2506/2606 11007KT P6SM -RA OVC040
     FM251200 11005KT 6SM BR SCT012 OVC050
     FM251600 14005KT P6SM -RA OVC035
     FM251800 17008KT P6SM -RA OVC015
     FM260200 18010KT P6SM -RA BKN020 OVC035=

USA.gov is the U.S. government's official web portal to all federal, state and local government web resources and services.